Time;durP1;ratioP1;P1;durP2;ratioP2;P2;SDS_P1;SDS_P2;PMS_P1;PMS_P2;Temp;Humidity;BMP_temperature;BMP_pressure;BME280_temperature;BME280_humidity;BME280_pressure;Samples;Min_cycle;Max_cycle;Signal;HPM_P1;HPM_P2
2022/03/18 00:02:13;;;;;;;21.08;8.00;;;3.80;99.90;;;;;;4973895;28;20042;-93
2022/03/18 00:04:39;;;;;;;20.73;7.72;;;4.50;99.90;;;;;;4956303;28;20043;-94
2022/03/18 00:07:05;;;;;;;22.92;7.53;;;4.20;99.90;;;;;;4979995;28;20086;-94
2022/03/18 00:09:31;;;;;;;22.23;7.22;;;3.70;99.90;;;;;;4974413;28;20507;-94
2022/03/18 00:11:57;;;;;;;20.20;7.50;;;4.50;99.90;;;;;;4958437;28;20045;-94
2022/03/18 00:14:23;;;;;;;19.33;7.30;;;4.10;99.90;;;;;;4942204;28;20401;-93
2022/03/18 00:16:49;;;;;;;16.77;7.75;;;4.30;99.90;;;;;;4990880;28;20046;-93
2022/03/18 00:19:15;;;;;;;19.83;7.50;;;4.30;99.90;;;;;;4958325;28;20097;-93
2022/03/18 00:21:42;;;;;;;20.77;7.83;;;3.60;99.90;;;;;;4960623;28;20066;-92
2022/03/18 00:24:08;;;;;;;18.83;7.35;;;3.70;99.90;;;;;;4956344;28;20140;-93
2022/03/18 00:26:34;;;;;;;21.13;7.90;;;3.90;99.90;;;;;;4925620;28;20062;-94
2022/03/18 00:28:59;;;;;;;19.03;8.07;;;4.40;99.90;;;;;;4972826;28;20114;-93
2022/03/18 00:31:25;;;;;;;23.03;8.67;;;3.50;99.90;;;;;;4943112;28;20041;-93
2022/03/18 00:33:51;;;;;;;18.20;7.43;;;4.20;99.90;;;;;;4975273;28;20046;-93
2022/03/18 00:36:17;;;;;;;24.27;7.93;;;3.90;99.90;;;;;;4941021;28;20055;-93
2022/03/18 00:38:43;;;;;;;22.88;8.35;;;4.10;99.90;;;;;;4973881;28;20477;-94
2022/03/18 00:41:09;;;;;;;21.77;8.07;;;4.20;99.90;;;;;;4975166;28;20152;-95
2022/03/18 00:43:35;;;;;;;18.00;8.03;;;4.10;99.90;;;;;;4974298;28;20485;-92
2022/03/18 00:46:00;;;;;;;21.50;8.00;;;4.50;99.90;;;;;;4972592;28;20035;-93
2022/03/18 00:53:55;;;;;;;18.70;8.07;;;3.60;99.90;;;;;;4959672;28;20174;-92
2022/03/18 00:56:20;;;;;;;20.70;8.30;;;4.60;99.90;;;;;;4940634;28;20047;-92
2022/03/18 00:58:46;;;;;;;19.02;8.32;;;4.50;99.90;;;;;;4973079;28;20097;-92
2022/03/18 01:01:12;;;;;;;22.40;8.33;;;4.30;99.90;;;;;;4955417;28;20046;-93
2022/03/18 01:03:38;;;;;;;23.27;8.70;;;4.50;99.90;;;;;;4988009;28;20045;-93
2022/03/18 01:06:04;;;;;;;18.48;8.80;;;4.10;99.90;;;;;;4972526;28;20043;-93
2022/03/18 01:08:30;;;;;;;24.70;9.13;;;3.50;99.90;;;;;;4940800;28;20067;-93
2022/03/18 01:10:56;;;;;;;19.90;8.60;;;3.70;99.90;;;;;;4938947;28;20508;-93
2022/03/18 01:13:23;;;;;;;21.83;9.00;;;3.50;99.90;;;;;;4940570;28;20041;-94
2022/03/18 01:15:49;;;;;;;18.50;8.77;;;4.60;99.90;;;;;;4955647;28;20043;-92
2022/03/18 01:18:15;;;;;;;20.03;9.13;;;4.30;99.90;;;;;;4955964;28;20045;-93
2022/03/18 01:20:41;;;;;;;27.33;10.30;;;4.00;99.90;;;;;;4955255;28;20043;-92
2022/03/18 01:23:06;;;;;;;21.77;9.83;;;3.90;99.90;;;;;;4939790;28;20046;-93
2022/03/18 01:25:33;;;;;;;22.50;10.07;;;3.40;99.90;;;;;;4955345;28;20061;-92
2022/03/18 01:28:01;;;;;;;26.47;9.30;;;4.50;99.90;;;;;;4988436;28;20049;-95
2022/03/18 01:30:29;;;;;;;21.27;9.17;;;3.40;99.90;;;;;;4957896;28;20047;-94
2022/03/18 01:32:55;;;;;;;22.60;9.40;;;3.50;99.90;;;;;;4974226;28;20058;-95
2022/03/18 01:35:21;;;;;;;20.87;9.23;;;3.40;99.90;;;;;;4958039;28;20042;-94
2022/03/18 01:37:47;;;;;;;23.70;9.57;;;3.50;99.90;;;;;;4958008;28;20185;-95
2022/03/18 01:40:13;;;;;;;18.10;9.38;;;4.60;99.90;;;;;;4957814;28;20049;-95
2022/03/18 01:42:39;;;;;;;20.73;9.13;;;3.50;99.90;;;;;;4974039;28;20047;-95
2022/03/18 01:45:05;;;;;;;25.85;9.93;;;3.70;99.90;;;;;;4958140;28;20057;-95
2022/03/18 01:47:31;;;;;;;22.25;9.75;;;3.50;99.90;;;;;;4958155;28;20342;-95
2022/03/18 01:50:00;;;;;;;20.98;9.90;;;3.50;99.90;;;;;;4989995;28;20042;-95
2022/03/18 01:52:27;;;;;;;21.48;10.02;;;3.50;99.90;;;;;;4958386;28;20042;-95
2022/03/18 01:54:53;;;;;;;21.17;9.90;;;3.30;99.90;;;;;;4971182;28;20043;-95
2022/03/18 01:57:22;;;;;;;21.37;8.50;;;4.40;99.90;;;;;;4959006;28;20042;-95
2022/03/18 01:59:49;;;;;;;22.42;9.80;;;3.50;99.90;;;;;;4958243;28;20078;-95
2022/03/18 02:02:15;;;;;;;22.38;10.25;;;3.50;99.90;;;;;;4973194;28;20047;-92
2022/03/18 02:04:43;;;;;;;20.52;9.80;;;3.50;99.90;;;;;;4971570;28;20065;-92
2022/03/18 02:07:09;;;;;;;23.50;9.97;;;3.70;99.90;;;;;;4959678;28;20097;-92
2022/03/18 02:09:36;;;;;;;19.97;9.10;;;3.80;99.90;;;;;;4970592;28;20038;-92
2022/03/18 02:12:03;;;;;;;18.37;8.90;;;4.30;99.90;;;;;;4940952;28;20081;-92
2022/03/18 02:14:36;;;;;;;18.07;8.37;;;3.40;99.90;;;;;;4970149;28;20047;-92
2022/03/18 02:17:03;;;;;;;23.70;9.63;;;4.50;99.90;;;;;;4971295;28;20046;-92
2022/03/18 02:19:29;;;;;;;21.33;9.53;;;3.40;99.90;;;;;;4970118;28;20043;-95
2022/03/18 02:21:57;;;;;;;17.75;8.65;;;3.40;99.90;;;;;;4938639;29;20114;-95
2022/03/18 02:24:23;;;;;;;16.83;9.43;;;3.30;99.90;;;;;;4970405;28;20043;-95
2022/03/18 02:26:51;;;;;;;19.33;8.77;;;4.20;99.90;;;;;;4956221;28;20039;-96
2022/03/18 02:29:22;;;;;;;21.03;8.97;;;3.20;99.90;;;;;;4974238;28;20101;-96
2022/03/18 02:31:48;;;;;;;21.27;8.90;;;4.00;99.90;;;;;;4974456;28;20359;-96
2022/03/18 02:34:15;;;;;;;18.38;8.88;;;3.50;99.90;;;;;;4974570;28;20062;-95
2022/03/18 02:36:41;;;;;;;18.70;9.35;;;4.20;99.90;;;;;;4953971;29;20409;-92
2022/03/18 02:39:07;;;;;;;16.77;9.23;;;4.40;99.90;;;;;;4953932;29;20047;-92
2022/03/18 02:41:33;;;;;;;19.93;9.03;;;3.30;99.90;;;;;;4952840;28;20043;-92
2022/03/18 02:44:02;;;;;;;23.50;9.07;;;3.20;99.90;;;;;;4970264;28;20516;-92
2022/03/18 02:46:32;;;;;;;21.43;8.43;;;3.20;99.90;;;;;;4969892;28;20478;-91
2022/03/18 02:49:00;;;;;;;20.13;9.50;;;4.30;99.90;;;;;;4955723;28;20043;-91
2022/03/18 02:51:26;;;;;;;18.43;9.40;;;3.10;99.90;;;;;;4940292;29;20039;-95
2022/03/18 02:53:52;;;;;;;20.05;9.18;;;3.20;99.90;;;;;;4958150;28;20133;-95
2022/03/18 02:56:19;;;;;;;17.03;8.20;;;3.30;99.90;;;;;;4958264;28;20154;-94
2022/03/18 02:58:44;;;;;;;20.20;8.73;;;4.00;99.90;;;;;;4958013;29;20047;-95
2022/03/18 03:01:10;;;;;;;19.73;8.50;;;3.00;99.90;;;;;;4926390;29;20046;-94
2022/03/18 03:03:36;;;;;;;19.60;9.03;;;2.80;99.90;;;;;;4942166;29;20513;-95
2022/03/18 03:08:46;;;;;;;18.60;9.63;;;2.90;99.90;;;;;;4945903;28;20817;-91
2022/03/18 03:11:12;;;;;;;22.87;9.57;;;3.80;99.90;;;;;;4939153;29;20077;-91
2022/03/18 03:13:38;;;;;;;21.47;9.00;;;2.80;99.90;;;;;;4923586;29;20039;-96
2022/03/18 03:16:08;;;;;;;19.87;9.60;;;4.20;99.90;;;;;;4957924;28;20097;-95
2022/03/18 03:18:34;;;;;;;20.83;8.73;;;2.80;99.90;;;;;;4957306;29;20552;-96
2022/03/18 03:21:00;;;;;;;20.43;9.40;;;2.90;99.90;;;;;;4957704;29;20402;-96
2022/03/18 03:23:26;;;;;;;23.40;9.25;;;2.80;99.90;;;;;;4958266;29;20098;-96
2022/03/18 03:25:53;;;;;;;20.73;9.93;;;3.70;99.90;;;;;;4957333;28;20042;-96
2022/03/18 03:28:19;;;;;;;20.97;8.83;;;2.60;99.90;;;;;;4957053;29;20047;-96
2022/03/18 03:30:45;;;;;;;18.70;9.00;;;4.10;99.90;;;;;;4941281;29;20035;-95
2022/03/18 03:33:11;;;;;;;18.92;8.35;;;3.00;99.90;;;;;;4966640;28;20066;-96
2022/03/18 03:35:38;;;;;;;17.57;8.90;;;3.10;99.90;;;;;;4960735;28;20089;-95
2022/03/18 03:38:05;;;;;;;17.13;9.20;;;4.50;99.90;;;;;;4975614;28;20039;-95
2022/03/18 03:40:31;;;;;;;18.53;9.07;;;3.40;99.90;;;;;;4944395;28;20190;-95
2022/03/18 03:42:56;;;;;;;17.90;9.35;;;3.20;99.90;;;;;;4974551;28;20125;-92
2022/03/18 03:45:22;;;;;;;21.53;9.43;;;3.80;99.90;;;;;;4987501;28;20046;-92
2022/03/18 03:47:48;;;;;;;21.73;9.13;;;3.40;99.90;;;;;;4925764;28;20102;-92
2022/03/18 03:50:15;;;;;;;20.90;9.02;;;3.40;99.90;;;;;;4973944;28;20038;-93
2022/03/18 03:52:41;;;;;;;22.88;8.40;;;3.50;99.90;;;;;;4942071;28;20043;-93
2022/03/18 03:55:08;;;;;;;17.60;7.93;;;4.50;99.90;;;;;;4956757;28;20800;-92
2022/03/18 03:57:34;;;;;;;14.82;8.20;;;3.60;99.90;;;;;;4971829;28;20038;-92
2022/03/18 04:00:00;;;;;;;18.02;8.65;;;3.70;99.90;;;;;;4983124;28;20493;-92
2022/03/18 04:02:29;;;;;;;18.35;9.00;;;4.60;99.90;;;;;;4973967;28;20039;-93
2022/03/18 04:04:57;;;;;;;22.77;9.35;;;4.30;99.90;;;;;;4980393;28;20497;-93
2022/03/18 04:07:25;;;;;;;18.67;8.38;;;4.90;99.90;;;;;;4989912;28;20039;-92
2022/03/18 04:09:53;;;;;;;21.08;8.82;;;3.90;99.90;;;;;;4946995;28;20049;-92
2022/03/18 04:12:21;;;;;;;16.10;8.32;;;4.40;99.90;;;;;;4942361;28;20042;-93
2022/03/18 04:14:47;;;;;;;15.05;8.18;;;4.70;99.90;;;;;;4972128;28;20041;-93
2022/03/18 04:17:13;;;;;;;13.90;7.50;;;4.10;99.90;;;;;;4974805;28;20069;-94
2022/03/18 04:19:39;;;;;;;20.33;7.05;;;4.10;99.90;;;;;;4973063;28;20401;-93
2022/03/18 04:22:05;;;;;;;14.93;7.68;;;4.20;99.90;;;;;;4974161;28;20035;-93
2022/03/18 04:24:31;;;;;;;17.73;7.70;;;4.20;99.90;;;;;;4980723;28;20039;-93
2022/03/18 04:26:57;;;;;;;13.40;7.40;;;;;;;;;;4973802;28;20043;-94
2022/03/18 04:29:23;;;;;;;19.48;7.85;;;5.20;99.90;;;;;;4957673;28;20031;-93
2022/03/18 04:31:50;;;;;;;19.95;7.78;;;4.80;99.90;;;;;;4960104;28;20468;-92
2022/03/18 04:34:16;;;;;;;12.30;7.50;;;5.80;99.90;;;;;;4972937;28;20073;-92
2022/03/18 04:36:42;;;;;;;13.43;7.47;;;4.50;99.90;;;;;;4955133;28;20404;-92
2022/03/18 04:39:08;;;;;;;13.90;7.78;;;4.50;99.90;;;;;;4959522;28;20560;-92
2022/03/18 04:41:34;;;;;;;16.63;8.65;;;5.10;99.90;;;;;;4971943;28;20126;-92
2022/03/18 04:44:01;;;;;;;16.52;7.82;;;4.90;99.90;;;;;;4956270;28;20043;-92
2022/03/18 04:46:31;;;;;;;16.80;7.60;;;4.40;99.90;;;;;;4970433;28;20038;-93
2022/03/18 04:49:00;;;;;;;16.27;7.82;;;4.30;99.90;;;;;;4956035;28;20034;-92
2022/03/18 04:51:26;;;;;;;16.45;8.02;;;5.20;99.90;;;;;;4986657;28;20077;-92
2022/03/18 04:53:52;;;;;;;13.55;7.60;;;4.20;99.90;;;;;;4938107;28;20047;-92
2022/03/18 04:59:03;;;;;;;17.33;7.97;;;4.60;99.90;;;;;;4974807;28;20113;-94
2022/03/18 05:01:29;;;;;;;18.15;7.93;;;3.90;99.90;;;;;;4958176;28;20043;-96
2022/03/18 05:03:55;;;;;;;12.07;7.28;;;3.80;99.90;;;;;;4957927;28;20181;-95
2022/03/18 05:06:21;;;;;;;15.00;8.27;;;3.70;99.90;;;;;;4958274;28;20121;-95
2022/03/18 05:08:47;;;;;;;13.23;8.00;;;4.30;99.90;;;;;;4958538;28;20050;-95
2022/03/18 05:11:13;;;;;;;20.13;8.88;;;3.50;99.90;;;;;;4972419;28;20042;-92
2022/03/18 05:13:39;;;;;;;16.20;8.17;;;4.10;99.90;;;;;;4939438;28;20039;-92
2022/03/18 05:16:05;;;;;;;15.88;8.40;;;4.40;99.90;;;;;;4989122;28;20429;-92
2022/03/18 05:18:31;;;;;;;14.93;8.25;;;3.40;99.90;;;;;;4975303;28;20385;-92
2022/03/18 05:20:57;;;;;;;18.47;7.93;;;3.90;99.90;;;;;;4956642;28;20043;-92
2022/03/18 05:23:23;;;;;;;16.55;9.05;;;3.90;99.90;;;;;;4974016;28;20043;-95
2022/03/18 05:25:49;;;;;;;16.65;8.68;;;3.80;99.90;;;;;;4942443;28;20488;-95
2022/03/18 05:28:15;;;;;;;15.75;9.05;;;4.10;99.90;;;;;;4974739;28;20046;-95
2022/03/18 05:30:40;;;;;;;15.43;8.65;;;3.50;99.90;;;;;;4942218;28;20507;-95
2022/03/18 05:33:07;;;;;;;16.67;8.32;;;3.20;99.90;;;;;;4942213;28;20058;-95
2022/03/18 05:35:32;;;;;;;15.45;8.43;;;2.70;99.90;;;;;;4957987;28;20134;-95
2022/03/18 05:37:58;;;;;;;14.77;8.13;;;2.60;99.90;;;;;;4974108;28;20078;-95
2022/03/18 05:40:24;;;;;;;15.90;9.00;;;2.50;99.90;;;;;;4942378;28;20035;-95
2022/03/18 05:42:50;;;;;;;17.30;9.23;;;2.50;99.90;;;;;;4942234;28;20063;-95
2022/03/18 05:45:17;;;;;;;15.80;8.07;;;2.40;99.90;;;;;;4941916;28;20043;-95
2022/03/18 05:47:42;;;;;;;16.83;8.53;;;2.40;99.90;;;;;;4953452;23;20137;-92
2022/03/18 05:50:09;;;;;;;14.30;9.33;;;2.70;99.90;;;;;;4956554;28;20118;-92
2022/03/18 05:52:36;;;;;;;15.97;9.20;;;2.20;99.90;;;;;;4970585;28;20046;-92
2022/03/18 05:55:02;;;;;;;19.10;9.30;;;2.60;99.90;;;;;;4956588;28;20485;-95
2022/03/18 05:57:29;;;;;;;17.50;10.37;;;2.60;99.90;;;;;;4957685;28;20046;-95
2022/03/18 05:59:57;;;;;;;17.53;10.30;;;2.10;99.90;;;;;;4957617;28;20093;-93
2022/03/18 06:02:22;;;;;;;17.20;10.60;;;2.20;99.90;;;;;;4936726;28;20043;-95
2022/03/18 06:04:49;;;;;;;18.83;10.20;;;3.60;99.90;;;;;;4958043;28;20053;-95
2022/03/18 06:07:15;;;;;;;19.43;9.87;;;2.10;99.90;;;;;;4957679;28;20601;-96
2022/03/18 06:12:25;;;;;;;15.63;9.73;;;3.60;99.90;;;;;;4960151;28;20069;-96
2022/03/18 06:14:51;;;;;;;13.80;10.50;;;2.30;99.90;;;;;;4957736;28;20035;-94
2022/03/18 06:17:17;;;;;;;19.30;10.07;;;2.30;99.90;;;;;;4941744;28;20481;-96
2022/03/18 06:19:43;;;;;;;17.87;10.37;;;2.30;99.90;;;;;;4957636;28;20065;-95
2022/03/18 06:22:09;;;;;;;15.23;9.87;;;2.40;99.90;;;;;;4957556;28;20046;-95
2022/03/18 06:24:35;;;;;;;17.17;10.10;;;3.20;99.90;;;;;;4957446;28;20074;-95
2022/03/18 06:27:01;;;;;;;21.30;10.83;;;3.10;99.90;;;;;;4957612;28;20039;-95
2022/03/18 06:29:28;;;;;;;13.17;9.33;;;2.50;99.90;;;;;;4954229;28;20074;-92
2022/03/18 06:31:55;;;;;;;17.70;10.50;;;3.10;99.90;;;;;;4954953;28;20489;-91
2022/03/18 06:34:21;;;;;;;15.50;9.73;;;3.40;99.90;;;;;;4955350;28;20034;-91
2022/03/18 06:36:49;;;;;;;20.63;10.55;;;4.30;99.90;;;;;;4939618;28;20875;-91
2022/03/18 06:39:15;;;;;;;17.58;9.85;;;;;;;;;;4987656;28;20049;-90
2022/03/18 06:41:40;;;;;;;14.90;9.23;;;4.40;99.90;;;;;;4971470;28;20452;-90
2022/03/18 06:44:08;;;;;;;11.48;8.45;;;5.70;99.90;;;;;;4970983;28;20039;-91
2022/03/18 06:46:37;;;;;;;16.52;8.27;;;6.40;99.90;;;;;;4972917;28;20450;-93
2022/03/18 06:49:04;;;;;;;13.77;7.03;;;6.60;99.90;;;;;;4975228;28;20046;-94
2022/03/18 06:51:30;;;;;;;11.15;7.20;;;7.30;99.90;;;;;;4960271;28;20400;-95
2022/03/18 06:53:56;;;;;;;12.18;7.22;;;7.90;99.90;;;;;;4959945;28;20034;-95
2022/03/18 06:56:22;;;;;;;14.85;6.60;;;8.90;99.90;;;;;;4976275;28;20038;-93
2022/03/18 06:58:48;;;;;;;13.93;7.90;;;9.00;99.90;;;;;;4958981;28;20204;-92
2022/03/18 07:01:14;;;;;;;12.77;6.45;;;9.40;99.90;;;;;;4974464;28;20045;-91
2022/03/18 07:03:40;;;;;;;11.00;6.32;;;9.90;99.90;;;;;;4976209;28;20062;-91
2022/03/18 07:06:06;;;;;;;13.48;6.90;;;10.30;99.90;;;;;;4974362;28;20118;-93
2022/03/18 07:08:33;;;;;;;16.05;7.22;;;10.70;99.90;;;;;;4989566;28;20045;-92
2022/03/18 07:10:59;;;;;;;15.10;7.07;;;11.30;99.90;;;;;;4990403;28;20116;-92
2022/03/18 07:13:25;;;;;;;20.27;7.68;;;11.80;99.90;;;;;;4975707;28;20532;-92
2022/03/18 07:15:51;;;;;;;15.85;7.30;;;12.00;99.90;;;;;;4960735;28;20169;-93
2022/03/18 07:18:17;;;;;;;14.23;6.82;;;12.40;99.90;;;;;;4977746;28;20388;-92
2022/03/18 07:20:42;;;;;;;13.90;6.88;;;12.70;99.90;;;;;;4976974;28;20064;-92
2022/03/18 07:23:10;;;;;;;15.07;7.20;;;13.10;99.90;;;;;;4978151;28;20141;-92
2022/03/18 07:25:43;;;;;;;16.88;7.55;;;13.50;99.90;;;;;;4977549;28;20046;-93
2022/03/18 07:28:11;;;;;;;15.25;7.30;;;14.00;99.90;;;;;;4976794;28;20042;-93
2022/03/18 07:30:39;;;;;;;18.20;7.05;;;14.10;99.90;;;;;;4975837;28;20117;-94
2022/03/18 07:33:05;;;;;;;19.33;6.90;;;14.80;99.90;;;;;;4993432;28;20056;-92
2022/03/18 07:35:32;;;;;;;14.60;6.43;;;14.90;99.90;;;;;;4959685;28;20045;-93
2022/03/18 07:37:58;;;;;;;13.80;6.82;;;15.20;99.90;;;;;;4966560;28;20070;-93
2022/03/18 07:40:24;;;;;;;13.82;6.82;;;15.20;99.90;;;;;;4979474;28;20105;-93
2022/03/18 07:42:52;;;;;;;13.55;6.07;;;15.00;99.90;;;;;;4979055;28;20644;-93
2022/03/18 07:45:26;;;;;;;14.13;6.18;;;15.10;99.90;;;;;;4979198;28;20047;-93
2022/03/18 07:48:01;;;;;;;15.50;6.43;;;15.00;99.90;;;;;;4964503;28;20051;-93
2022/03/18 07:50:30;;;;;;;13.48;6.00;;;14.80;99.90;;;;;;4962008;28;20035;-94
2022/03/18 07:52:58;;;;;;;14.48;6.68;;;14.90;99.90;;;;;;4972129;28;20031;-93
2022/03/18 07:55:25;;;;;;;14.25;6.25;;;14.70;99.90;;;;;;4958770;28;20413;-93
2022/03/18 07:57:52;;;;;;;15.15;5.82;;;15.10;99.90;;;;;;4962627;28;20051;-93
2022/03/18 08:00:19;;;;;;;15.82;5.95;;;15.90;99.90;;;;;;4974378;28;20078;-95
2022/03/18 08:02:46;;;;;;;12.38;6.15;;;16.90;99.90;;;;;;4969392;28;20536;-95
2022/03/18 08:05:13;;;;;;;13.85;6.13;;;17.60;99.90;;;;;;4954134;28;20050;-95
2022/03/18 08:07:40;;;;;;;17.98;6.22;;;18.00;99.00;;;;;;4945338;28;20035;-93
2022/03/18 08:10:08;;;;;;;15.23;6.03;;;17.80;99.70;;;;;;4974870;28;20034;-90
2022/03/18 08:12:34;;;;;;;11.13;5.13;;;18.50;99.90;;;;;;4975110;28;20038;-90
2022/03/18 08:15:04;;;;;;;12.68;5.10;;;19.00;99.50;;;;;;4990992;28;20034;-90
2022/03/18 08:17:31;;;;;;;14.27;5.30;;;19.30;98.30;;;;;;4943465;28;20046;-90
2022/03/18 08:19:56;;;;;;;11.95;5.38;;;19.90;96.70;;;;;;4973327;28;20122;-91
2022/03/18 08:22:23;;;;;;;13.55;5.15;;;20.10;96.30;;;;;;4972741;28;20529;-90
2022/03/18 08:24:49;;;;;;;13.93;5.25;;;20.30;93.00;;;;;;4957289;28;20042;-92
2022/03/18 08:27:15;;;;;;;11.90;4.90;;;20.50;94.60;;;;;;4971820;28;20049;-92
2022/03/18 08:29:42;;;;;;;13.63;5.15;;;21.00;94.80;;;;;;4990097;28;20125;-91
2022/03/18 08:32:14;;;;;;;13.68;5.00;;;20.90;93.20;;;;;;4958797;28;20054;-91
2022/03/18 08:34:40;;;;;;;15.63;5.70;;;21.10;92.50;;;;;;4956009;28;20038;-89
2022/03/18 08:37:06;;;;;;;16.05;5.07;;;21.40;92.20;;;;;;4968700;28;20043;-89
2022/03/18 08:39:36;;;;;;;16.40;5.55;;;21.40;90.90;;;;;;4964548;28;20042;-89
2022/03/18 08:42:02;;;;;;;12.15;4.85;;;21.60;88.60;;;;;;4967672;28;20121;-89
2022/03/18 08:44:28;;;;;;;14.82;5.32;;;21.70;90.10;;;;;;4964190;28;20098;-89
2022/03/18 08:46:55;;;;;;;11.30;5.00;;;22.10;90.00;;;;;;4974092;28;20501;-89
2022/03/18 08:49:20;;;;;;;12.55;5.10;;;22.20;87.80;;;;;;4963234;28;20074;-89
2022/03/18 08:51:46;;;;;;;11.13;5.20;;;22.20;86.70;;;;;;4975121;28;20140;-92
2022/03/18 08:54:12;;;;;;;11.35;4.93;;;22.20;86.40;;;;;;4976573;28;20085;-93
2022/03/18 08:56:37;;;;;;;10.60;4.95;;;22.50;86.30;;;;;;4930318;28;20049;-92
2022/03/18 08:59:06;;;;;;;15.25;5.32;;;22.80;85.20;;;;;;4958549;28;20043;-91
2022/03/18 09:01:33;;;;;;;14.60;4.97;;;23.10;84.10;;;;;;4958275;28;20485;-91
2022/03/18 09:03:58;;;;;;;14.75;5.20;;;23.50;82.90;;;;;;4984491;28;20129;-90
2022/03/18 09:06:24;;;;;;;12.27;4.93;;;23.70;80.90;;;;;;4961313;28;20690;-87
2022/03/18 09:08:50;;;;;;;11.77;4.85;;;23.80;80.70;;;;;;4983101;28;20061;-87
2022/03/18 09:11:16;;;;;;;11.55;4.68;;;24.30;80.60;;;;;;4979876;28;20042;-88
2022/03/18 09:13:42;;;;;;;13.30;4.57;;;24.60;79.10;;;;;;4960774;28;20043;-88
2022/03/18 09:16:09;;;;;;;13.45;4.85;;;24.60;77.70;;;;;;4955443;28;20092;-90
2022/03/18 09:18:34;;;;;;;14.43;4.88;;;24.80;76.70;;;;;;4981797;28;20042;-91
2022/03/18 09:21:00;;;;;;;11.13;4.38;;;24.80;75.40;;;;;;4964222;28;20061;-91
2022/03/18 09:23:26;;;;;;;13.68;4.50;;;25.00;75.00;;;;;;4958419;28;20482;-90
2022/03/18 09:25:52;;;;;;;13.52;4.30;;;25.30;74.20;;;;;;4942677;28;20129;-91
2022/03/18 09:28:18;;;;;;;11.02;4.40;;;25.40;73.30;;;;;;4954218;28;20030;-89
2022/03/18 09:30:43;;;;;;;16.52;4.68;;;25.80;72.80;;;;;;4966112;28;20069;-89
2022/03/18 09:33:10;;;;;;;11.20;4.10;;;26.00;71.60;;;;;;4990680;28;20046;-91
2022/03/18 09:35:36;;;;;;;16.40;4.90;;;25.90;70.50;;;;;;4960460;28;20532;-91
2022/03/18 09:38:02;;;;;;;11.30;4.57;;;26.30;69.80;;;;;;4968708;28;20038;-91
2022/03/18 09:40:28;;;;;;;13.77;4.55;;;26.30;69.20;;;;;;4939419;28;20042;-90
2022/03/18 09:43:04;;;;;;;12.95;4.68;;;26.60;69.10;;;;;;4966636;28;20038;-91
2022/03/18 09:45:32;;;;;;;12.77;4.57;;;26.70;65.40;;;;;;4964127;28;20053;-91
2022/03/18 09:48:03;;;;;;;13.68;4.15;;;27.20;67.20;;;;;;4964927;28;20571;-87
2022/03/18 09:50:30;;;;;;;12.73;4.47;;;27.40;64.40;;;;;;4984190;28;20059;-86
2022/03/18 09:52:56;;;;;;;11.90;4.47;;;27.40;65.40;;;;;;4977042;28;20560;-86
2022/03/18 09:55:22;;;;;;;11.07;4.50;;;27.30;65.00;;;;;;4943995;28;20050;-85
2022/03/18 09:57:48;;;;;;;16.48;5.45;;;27.00;64.30;;;;;;5006565;28;20034;-85
2022/03/18 10:00:14;;;;;;;13.73;5.10;;;27.30;64.60;;;;;;4961073;28;20039;-85
2022/03/18 10:02:39;;;;;;;11.95;4.45;;;27.90;63.40;;;;;;4975859;28;20043;-87
2022/03/18 10:05:13;;;;;;;14.88;4.32;;;27.90;63.80;;;;;;4960671;28;20061;-84
2022/03/18 10:07:40;;;;;;;9.93;4.32;;;28.30;62.80;;;;;;4966273;28;20045;-84
2022/03/18 10:10:16;;;;;;;14.00;4.70;;;28.40;61.90;;;;;;4980626;28;20085;-84
2022/03/18 10:12:44;;;;;;;12.98;4.97;;;28.40;61.50;;;;;;4972225;28;20169;-85
2022/03/18 10:15:28;;;;;;;11.00;4.60;;;28.40;61.50;;;;;;4963081;28;20056;-85
2022/03/18 10:17:58;;;;;;;13.00;4.70;;;28.20;58.70;;;;;;4976300;28;20070;-86
2022/03/18 10:20:33;;;;;;;12.18;4.88;;;28.30;61.10;;;;;;4974377;28;20117;-86
2022/03/18 10:23:23;;;;;;;11.93;4.80;;;28.50;60.90;;;;;;4971331;28;20130;-89
2022/03/18 10:25:55;;;;;;;12.18;4.15;;;28.20;59.20;;;;;;4973422;28;20058;-88
2022/03/18 10:28:36;;;;;;;12.15;4.72;;;28.20;60.80;;;;;;4997458;28;20042;-88
2022/03/18 10:31:19;;;;;;;13.23;5.30;;;28.00;57.30;;;;;;4970566;28;20563;-88
2022/03/18 10:39:51;;;;;;;12.60;5.40;;;28.20;60.80;;;;;;4984422;28;20169;-88
2022/03/18 10:42:19;;;;;;;14.32;4.70;;;28.40;59.80;;;;;;4976405;28;20096;-87
2022/03/18 10:44:51;;;;;;;12.55;5.13;;;28.60;59.50;;;;;;4976399;28;20045;-87
2022/03/18 10:47:36;;;;;;;14.38;4.90;;;28.00;59.70;;;;;;4973879;28;20046;-87
2022/03/18 10:50:21;;;;;;;12.70;4.93;;;28.50;59.30;;;;;;4988810;28;20046;-88
2022/03/18 10:52:47;;;;;;;14.05;4.85;;;28.90;57.70;;;;;;4986783;28;20424;-87
2022/03/18 10:55:22;;;;;;;11.90;3.95;;;29.30;59.10;;;;;;4979479;28;20092;-88
2022/03/18 10:58:11;;;;;;;14.18;4.82;;;29.50;58.10;;;;;;4966121;28;20038;-88
2022/03/18 11:00:39;;;;;;;11.70;4.50;;;29.50;57.60;;;;;;4968432;28;20035;-88
2022/03/18 11:03:06;;;;;;;11.05;5.07;;;29.20;54.20;;;;;;4991458;28;20043;-88
2022/03/18 11:05:40;;;;;;;11.23;4.07;;;28.60;57.50;;;;;;4966123;28;20053;-87
2022/03/18 11:08:21;;;;;;;11.30;4.70;;;28.50;58.50;;;;;;5004833;28;20049;-88
2022/03/18 11:11:14;;;;;;;13.63;5.25;;;28.60;57.60;;;;;;4978840;28;20282;-88
2022/03/18 11:14:06;;;;;;;12.20;4.82;;;29.00;58.10;;;;;;4992265;28;20039;-87
2022/03/18 11:16:40;;;;;;;11.48;4.70;;;29.80;55.80;;;;;;4986269;28;20038;-87
2022/03/18 11:19:10;;;;;;;14.48;4.55;;;30.00;56.40;;;;;;4987620;28;20066;-88
2022/03/18 11:21:38;;;;;;;12.70;4.70;;;30.00;55.80;;;;;;4977225;28;20397;-88
2022/03/18 11:24:22;;;;;;;14.32;4.43;;;28.80;55.40;;;;;;4982189;28;20053;-88
2022/03/18 11:26:50;;;;;;;10.15;4.15;;;27.60;56.10;;;;;;4995241;28;20082;-88
2022/03/18 11:29:26;;;;;;;12.40;4.32;;;27.20;57.50;;;;;;4990871;28;20050;-88
2022/03/18 11:32:10;;;;;;;20.65;8.02;;;27.60;57.90;;;;;;4986534;28;20499;-88
2022/03/18 11:34:58;;;;;;;16.05;8.50;;;28.40;56.90;;;;;;4959676;28;20038;-87
2022/03/18 11:37:25;;;;;;;11.73;5.05;;;28.90;55.70;;;;;;4985212;28;20037;-87
2022/03/18 11:39:52;;;;;;;13.13;4.78;;;29.20;55.70;;;;;;4973404;28;20031;-90
2022/03/18 11:42:19;;;;;;;9.25;4.50;;;28.30;55.40;;;;;;4972066;28;20039;-90
2022/03/18 11:44:56;;;;;;;13.98;4.15;;;28.20;55.80;;;;;;4972344;28;20042;-90
2022/03/18 11:47:31;;;;;;;15.65;4.25;;;27.90;56.60;;;;;;4956316;28;20061;-89
2022/03/18 11:50:02;;;;;;;14.80;4.05;;;28.20;56.00;;;;;;4972113;28;20050;-90
2022/03/18 11:52:28;;;;;;;11.32;3.67;;;28.80;55.90;;;;;;4990551;28;20390;-88
2022/03/18 11:55:06;;;;;;;11.32;3.80;;;29.30;55.90;;;;;;4977328;28;20121;-87
2022/03/18 11:57:42;;;;;;;12.63;3.75;;;29.80;55.10;;;;;;4983105;28;20034;-87
2022/03/18 12:00:32;;;;;;;12.32;3.88;;;29.80;54.20;;;;;;4986391;28;20048;-88
2022/03/18 12:03:02;;;;;;;13.55;3.92;;;29.80;54.40;;;;;;5023548;23;20054;-85
2022/03/18 12:05:32;;;;;;;12.48;4.07;;;29.80;54.00;;;;;;5009750;28;20042;-84
2022/03/18 12:07:59;;;;;;;12.13;3.58;;;29.80;54.20;;;;;;5015995;28;20091;-85
2022/03/18 12:10:37;;;;;;;11.73;4.00;;;29.90;54.10;;;;;;5012130;28;20037;-84
2022/03/18 12:13:03;;;;;;;11.05;3.95;;;29.90;53.00;;;;;;5020099;28;20048;-84
2022/03/18 12:15:31;;;;;;;14.70;4.97;;;29.10;53.10;;;;;;5000403;28;20456;-86
2022/03/18 12:17:57;;;;;;;15.02;5.57;;;29.00;53.50;;;;;;5012855;28;20104;-83
2022/03/18 12:20:26;;;;;;;15.02;4.80;;;27.50;54.50;;;;;;4985734;28;20033;-84
2022/03/18 12:22:53;;;;;;;14.18;4.03;;;27.50;55.10;;;;;;5022189;28;20068;-83
2022/03/18 12:25:22;;;;;;;12.20;3.75;;;27.80;55.80;;;;;;4981675;28;20041;-84
2022/03/18 12:27:53;;;;;;;13.57;3.33;;;28.00;54.90;;;;;;5016490;28;20167;-84
2022/03/18 12:30:24;;;;;;;11.13;3.35;;;28.40;54.70;;;;;;5014884;28;20040;-84
2022/03/18 12:32:52;;;;;;;12.32;3.60;;;28.40;54.50;;;;;;5014429;28;20479;-84
2022/03/18 12:35:18;;;;;;;10.50;3.72;;;28.50;54.20;;;;;;5000955;28;20116;-84
2022/03/18 12:37:46;;;;;;;11.43;3.72;;;29.10;54.40;;;;;;5015997;28;20033;-84
2022/03/18 12:40:15;;;;;;;11.30;3.70;;;29.30;53.40;;;;;;5029566;28;20041;-84
2022/03/18 12:42:48;;;;;;;14.23;3.95;;;29.30;53.10;;;;;;5001091;28;20503;-84
2022/03/18 12:45:24;;;;;;;12.45;3.53;;;29.30;53.20;;;;;;5015256;28;20053;-84
2022/03/18 12:47:51;;;;;;;9.70;3.35;;;29.50;52.60;;;;;;5031438;28;20067;-84
2022/03/18 12:50:17;;;;;;;10.13;3.33;;;29.50;52.40;;;;;;5012654;28;20041;-84
2022/03/18 12:52:44;;;;;;;11.88;3.85;;;29.40;52.00;;;;;;5016289;28;20589;-87
2022/03/18 12:55:12;;;;;;;10.65;3.13;;;29.10;52.40;;;;;;5014687;28;20048;-87
2022/03/18 12:57:41;;;;;;;15.27;3.42;;;28.80;52.90;;;;;;5002428;28;20076;-86
2022/03/18 13:00:09;;;;;;;12.75;3.85;;;28.80;53.70;;;;;;5014934;28;20081;-87
2022/03/18 13:02:36;;;;;;;13.75;3.78;;;28.90;53.10;;;;;;5021348;28;20057;-86
2022/03/18 13:05:02;;;;;;;11.23;3.85;;;28.90;53.20;;;;;;5031467;28;20121;-87
2022/03/18 13:07:29;;;;;;;14.90;3.80;;;29.10;53.20;;;;;;5030127;28;20049;-87